sensor_id;sensor_type;location;lat;lon;timestamp;pressure;altitude;pressure_sealevel;temperature;humidity
70943;BME280;59154;51.970;5.650;2023-04-20T00:00:04;102300;;;8.76696;46.7
70943;BME280;59154;51.970;5.650;2023-04-20T00:05:03;102300;;;8.76696;46.5
70943;BME280;59154;51.970;5.650;2023-04-20T00:10:04;102300;;;8.73644;47.0
70943;BME280;59154;51.970;5.650;2023-04-20T00:15:03;102300;;;8.73644;46.9
70943;BME280;59154;51.970;5.650;2023-04-20T00:20:04;102300;;;8.5432;47.4
70943;BME280;59154;51.970;5.650;2023-04-20T00:25:03;102300;;;8.38046;48.0
70943;BME280;59154;51.970;5.650;2023-04-20T00:30:03;102300;;;8.3652;48.3
70943;BME280;59154;51.970;5.650;2023-04-20T00:35:03;102300;;;8.36012;48.3
70943;BME280;59154;51.970;5.650;2023-04-20T00:40:05;102200;;;8.38046;48.4
70943;BME280;59154;51.970;5.650;2023-04-20T00:45:03;102200;;;8.20756;49.2
70943;BME280;59154;51.970;5.650;2023-04-20T00:50:03;102200;;;8.02448;49.7
70943;BME280;59154;51.970;5.650;2023-04-20T00:55:03;102200;;;8.02448;50.2
70943;BME280;59154;51.970;5.650;2023-04-20T01:00:05;102200;;;7.82615;50.5
70943;BME280;59154;51.970;5.650;2023-04-20T01:05:03;102200;;;7.77529;51.1
70943;BME280;59154;51.970;5.650;2023-04-20T01:10:03;102200;;;7.64816;51.5
70943;BME280;59154;51.970;5.650;2023-04-20T01:15:04;102200;;;7.7041;51.8
70943;BME280;59154;51.970;5.650;2023-04-20T01:20:03;102200;;;7.61764;51.8
70943;BME280;59154;51.970;5.650;2023-04-20T01:25:02;102200;;;7.58713;52.4
70943;BME280;59154;51.970;5.650;2023-04-20T01:30:03;102200;;;7.61256;52.6
70943;BME280;59154;51.970;5.650;2023-04-20T01:35:03;102200;;;7.60239;53.0
70943;BME280;59154;51.970;5.650;2023-04-20T01:40:04;102200;;;7.64307;53.7
70943;BME280;59154;51.970;5.650;2023-04-20T01:45:03;102100;;;7.84649;54.7
70943;BME280;59154;51.970;5.650;2023-04-20T01:50:03;102100;;;7.95837;55.0
70943;BME280;59154;51.970;5.650;2023-04-20T01:55:02;102100;;;7.92277;55.7
70943;BME280;59154;51.970;5.650;2023-04-20T02:00:04;102100;;;7.89734;55.9
70943;BME280;59154;51.970;5.650;2023-04-20T02:05:03;102100;;;7.93803;56.9
70943;BME280;59154;51.970;5.650;2023-04-20T02:10:04;102100;;;8.02448;57.0
70943;BME280;59154;51.970;5.650;2023-04-20T02:15:03;102100;;;7.83123;57.7
70943;BME280;59154;51.970;5.650;2023-04-20T02:20:04;102100;;;7.82106;58.2
70943;BME280;59154;51.970;5.650;2023-04-20T02:25:05;102100;;;7.50068;59.2
70943;BME280;59154;51.970;5.650;2023-04-20T02:30:04;102100;;;7.55662;59.3
70943;BME280;59154;51.970;5.650;2023-04-20T02:35:04;102100;;;7.58713;59.4
70943;BME280;59154;51.970;5.650;2023-04-20T02:40:05;102100;;;7.5973;59.7
70943;BME280;59154;51.970;5.650;2023-04-20T02:45:03;102100;;;7.5617;60.4
70943;BME280;59154;51.970;5.650;2023-04-20T02:50:03;102100;;;7.46;61.0
70943;BME280;59154;51.970;5.650;2023-04-20T02:55:03;102100;;;7.65324;61.1
70943;BME280;59154;51.970;5.650;2023-04-20T03:00:05;102100;;;7.67867;61.4
70943;BME280;59154;51.970;5.650;2023-04-20T03:05:03;102000;;;7.71427;62.3
70943;BME280;59154;51.970;5.650;2023-04-20T03:10:03;102000;;;7.87192;62.5
70943;BME280;59154;51.970;5.650;2023-04-20T03:15:03;102000;;;7.73969;63.1
70943;BME280;59154;51.970;5.650;2023-04-20T03:20:03;102000;;;7.9126;63.1
70943;BME280;59154;51.970;5.650;2023-04-20T03:25:03;102000;;;7.91768;63.7
70943;BME280;59154;51.970;5.650;2023-04-20T03:30:04;102000;;;7.80072;64.1
70943;BME280;59154;51.970;5.650;2023-04-20T03:35:02;102000;;;7.85666;64.1
70943;BME280;59154;51.970;5.650;2023-04-20T03:40:05;102000;;;7.84649;64.6
70943;BME280;59154;51.970;5.650;2023-04-20T03:45:04;102000;;;7.97362;64.7
70943;BME280;59154;51.970;5.650;2023-04-20T03:50:03;102000;;;8.02956;64.6
70943;BME280;59154;51.970;5.650;2023-04-20T03:55:02;102000;;;8.10585;64.8
70943;BME280;59154;51.970;5.650;2023-04-20T04:00:04;102000;;;8.1567;64.5
70943;BME280;59154;51.970;5.650;2023-04-20T04:05:03;102000;;;8.27367;63.9
70943;BME280;59154;51.970;5.650;2023-04-20T04:10:03;102000;;;8.30926;63.9
70943;BME280;59154;51.970;5.650;2023-04-20T04:15:03;102000;;;8.30926;63.8
70943;BME280;59154;51.970;5.650;2023-04-20T04:20:03;102000;;;8.31944;64.1
70943;BME280;59154;51.970;5.650;2023-04-20T04:25:03;102000;;;8.44149;64.1
70943;BME280;59154;51.970;5.650;2023-04-20T04:30:03;101900;;;8.34995;64.3
70943;BME280;59154;51.970;5.650;2023-04-20T04:35:02;101900;;;8.53303;64.3
70943;BME280;59154;51.970;5.650;2023-04-20T04:40:05;101900;;;8.38046;64.7
70943;BME280;59154;51.970;5.650;2023-04-20T04:45:03;101900;;;8.62456;64.5
70943;BME280;59154;51.970;5.650;2023-04-20T04:50:04;101900;;;8.66016;64.6
70943;BME280;59154;51.970;5.650;2023-04-20T04:55:02;101900;;;8.66525;64.8
70943;BME280;59154;51.970;5.650;2023-04-20T05:00:06;101900;;;8.68559;65.1
70943;BME280;59154;51.970;5.650;2023-04-20T05:05:03;102000;;;8.8229;65.1
70943;BME280;59154;51.970;5.650;2023-04-20T05:10:03;101900;;;8.79239;65.3
70943;BME280;59154;51.970;5.650;2023-04-20T05:15:04;101900;;;8.92461;65.3
70943;BME280;59154;51.970;5.650;2023-04-20T05:20:03;101900;;;8.90427;65.7
70943;BME280;59154;51.970;5.650;2023-04-20T05:25:03;101900;;;8.85341;66.5
70943;BME280;59154;51.970;5.650;2023-04-20T05:30:04;101900;;;9.03649;66.5
70943;BME280;59154;51.970;5.650;2023-04-20T05:35:03;101900;;;9.08226;66.5
70943;BME280;59154;51.970;5.650;2023-04-20T05:40:04;101900;;;9.05175;66.9
70943;BME280;59154;51.970;5.650;2023-04-20T05:45:03;101900;;;9.1738;66.8
70943;BME280;59154;51.970;5.650;2023-04-20T05:50:03;101900;;;9.43316;66.1
70943;BME280;59154;51.970;5.650;2023-04-20T05:55:03;101900;;;9.36196;66.4
70943;BME280;59154;51.970;5.650;2023-04-20T06:00:04;101900;;;9.15346;66.6
70943;BME280;59154;51.970;5.650;2023-04-20T06:05:02;101900;;;9.4179;66.4
70943;BME280;59154;51.970;5.650;2023-04-20T06:10:05;101900;;;9.55521;65.8
70943;BME280;59154;51.970;5.650;2023-04-20T06:15:03;101900;;;9.71286;65.4
70943;BME280;59154;51.970;5.650;2023-04-20T06:20:03;101900;;;9.60607;65.6
70943;BME280;59154;51.970;5.650;2023-04-20T06:25:03;101900;;;9.87052;65.4
70943;BME280;59154;51.970;5.650;2023-04-20T06:30:03;101900;;;9.96206;64.7
70943;BME280;59154;51.970;5.650;2023-04-20T06:35:03;101900;;;9.8756;65.0
70943;BME280;59154;51.970;5.650;2023-04-20T06:40:04;101900;;;10.04851;65.7
70943;BME280;59154;51.970;5.650;2023-04-20T06:45:04;101900;;;9.96714;65.8
70943;BME280;59154;51.970;5.650;2023-04-20T06:50:04;101900;;;9.84;64.7
70943;BME280;59154;51.970;5.650;2023-04-20T06:55:03;101900;;;9.94171;64.4
70943;BME280;59154;51.970;5.650;2023-04-20T07:00:05;101900;;;10.12479;64.3
70943;BME280;59154;51.970;5.650;2023-04-20T07:05:02;101900;;;10.14005;63.9
70943;BME280;59154;51.970;5.650;2023-04-20T07:10:03;101900;;;10.02308;63.8
70943;BME280;59154;51.970;5.650;2023-04-20T07:15:03;101900;;;9.92137;64.2
70943;BME280;59154;51.970;5.650;2023-04-20T07:20:04;101900;;;9.88577;64.2
70943;BME280;59154;51.970;5.650;2023-04-20T07:25:05;101900;;;9.62641;64.3
70943;BME280;59154;51.970;5.650;2023-04-20T07:30:04;101900;;;9.73321;64.6
70943;BME280;59154;51.970;5.650;2023-04-20T07:35:03;101900;;;9.55013;64.9
70943;BME280;59154;51.970;5.650;2023-04-20T07:40:04;101900;;;9.8044;64.7
70943;BME280;59154;51.970;5.650;2023-04-20T07:45:03;101900;;;9.91629;64.3
70943;BME280;59154;51.970;5.650;2023-04-20T07:50:04;101900;;;10.32313;63.8
70943;BME280;59154;51.970;5.650;2023-04-20T07:55:03;101900;;;10.23668;64.3
70943;BME280;59154;51.970;5.650;2023-04-20T08:00:05;101900;;;10.24176;64.4
70943;BME280;59154;51.970;5.650;2023-04-20T08:05:02;101900;;;10.74524;62.4
70943;BME280;59154;51.970;5.650;2023-04-20T08:10:03;101900;;;11.06054;62.7
70943;BME280;59154;51.970;5.650;2023-04-20T08:15:03;101900;;;11.0046;62.6
70943;BME280;59154;51.970;5.650;2023-04-20T08:20:03;101900;;;11.05546;62.5
70943;BME280;59154;51.970;5.650;2023-04-20T08:25:02;101900;;;11.21311;62.6
70943;BME280;59154;51.970;5.650;2023-04-20T08:30:03;101800;;;11.21311;61.9
70943;BME280;59154;51.970;5.650;2023-04-20T08:35:03;101800;;;11.63522;62.0
70943;BME280;59154;51.970;5.650;2023-04-20T08:40:04;101800;;;11.45722;61.3
70943;BME280;59154;51.970;5.650;2023-04-20T08:45:02;101800;;;11.30466;62.2
70943;BME280;59154;51.970;5.650;2023-04-20T08:50:04;101900;;;11.3962;62.6
70943;BME280;59154;51.970;5.650;2023-04-20T08:55:03;101800;;;11.39111;62.6
70943;BME280;59154;51.970;5.650;2023-04-20T09:00:05;101800;;;11.22837;62.3
70943;BME280;59154;51.970;5.650;2023-04-20T09:05:03;101800;;;10.82152;64.0
70943;BME280;59154;51.970;5.650;2023-04-20T09:10:03;101900;;;10.71472;64.3
70943;BME280;59154;51.970;5.650;2023-04-20T09:15:03;101800;;;10.81644;64.4
70943;BME280;59154;51.970;5.650;2023-04-20T09:20:04;101800;;;11.1826;63.7
70943;BME280;59154;51.970;5.650;2023-04-20T09:25:12;101800;;;10.969;63.6
70943;BME280;59154;51.970;5.650;2023-04-20T09:30:04;101800;;;10.91815;64.6
70943;BME280;59154;51.970;5.650;2023-04-20T09:35:03;101800;;;11.08089;64.5
70943;BME280;59154;51.970;5.650;2023-04-20T09:40:04;101800;;;11.54877;63.2
70943;BME280;59154;51.970;5.650;2023-04-20T09:45:02;101800;;;11.52334;63.5
70943;BME280;59154;51.970;5.650;2023-04-20T09:50:03;101800;;;11.37077;63.5
70943;BME280;59154;51.970;5.650;2023-04-20T09:55:04;101800;;;11.30974;63.8
70943;BME280;59154;51.970;5.650;2023-04-20T10:00:05;101800;;;10.92323;63.8
70943;BME280;59154;51.970;5.650;2023-04-20T10:05:03;101800;;;10.69438;65.2
70943;BME280;59154;51.970;5.650;2023-04-20T10:10:05;101800;;;10.62318;64.5
70943;BME280;59154;51.970;5.650;2023-04-20T10:15:03;101800;;;10.62318;65.2
70943;BME280;59154;51.970;5.650;2023-04-20T10:20:17;101800;;;10.96392;64.5
70943;BME280;59154;51.970;5.650;2023-04-20T10:25:15;101800;;;11.59454;61.4
70943;BME280;59154;51.970;5.650;2023-04-20T10:30:09;101800;;;11.98613;61.1
70943;BME280;59154;51.970;5.650;2023-04-20T10:35:05;101800;;;11.98613;59.3
70943;BME280;59154;51.970;5.650;2023-04-20T10:40:04;101800;;;12.34722;59.2
70943;BME280;59154;51.970;5.650;2023-04-20T10:45:02;101800;;;12.40825;58.3
70943;BME280;59154;51.970;5.650;2023-04-20T10:50:07;101800;;;12.44385;57.6
70943;BME280;59154;51.970;5.650;2023-04-20T10:55:03;101800;;;12.07259;58.0
70943;BME280;59154;51.970;5.650;2023-04-20T11:00:14;101800;;;12.33705;58.4
70943;BME280;59154;51.970;5.650;2023-04-20T11:05:09;101800;;;12.14888;57.7
70943;BME280;59154;51.970;5.650;2023-04-20T11:10:03;101800;;;12.22516;57.6
70943;BME280;59154;51.970;5.650;2023-04-20T11:15:03;101800;;;12.44385;58.0
70943;BME280;59154;51.970;5.650;2023-04-20T11:20:04;101800;;;12.75407;57.2
70943;BME280;59154;51.970;5.650;2023-04-20T11:25:04;101800;;;12.86087;56.8
70943;BME280;59154;51.970;5.650;2023-04-20T11:30:04;101700;;;12.75407;56.4
70943;BME280;59154;51.970;5.650;2023-04-20T11:35:04;101700;;;12.3523;56.4
70943;BME280;59154;51.970;5.650;2023-04-20T11:40:04;101700;;;12.37773;55.9
70943;BME280;59154;51.970;5.650;2023-04-20T11:45:04;101700;;;12.4591;56.1
70943;BME280;59154;51.970;5.650;2023-04-20T11:50:04;101700;;;12.54556;55.8
70943;BME280;59154;51.970;5.650;2023-04-20T11:55:03;101700;;;12.16413;55.8
70943;BME280;59154;51.970;5.650;2023-04-20T12:00:04;101700;;;12.27602;56.3
70943;BME280;59154;51.970;5.650;2023-04-20T12:05:02;101700;;;12.43876;56.5
70943;BME280;59154;51.970;5.650;2023-04-20T12:10:03;101700;;;11.93019;58.0
70943;BME280;59154;51.970;5.650;2023-04-20T12:15:03;101700;;;12.23533;58.2
70943;BME280;59154;51.970;5.650;2023-04-20T12:20:04;101700;;;12.62693;57.1
70943;BME280;59154;51.970;5.650;2023-04-20T12:25:03;101700;;;12.26585;58.3
70943;BME280;59154;51.970;5.650;2023-04-20T12:30:03;101700;;;11.71659;59.0
70943;BME280;59154;51.970;5.650;2023-04-20T12:35:03;101700;;;12.0319;59.2
70943;BME280;59154;51.970;5.650;2023-04-20T12:40:04;101700;;;12.64219;59.1
70943;BME280;59154;51.970;5.650;2023-04-20T12:45:03;101700;;;12.64219;57.4
70943;BME280;59154;51.970;5.650;2023-04-20T12:50:03;101700;;;12.44893;58.0
70943;BME280;59154;51.970;5.650;2023-04-20T12:55:02;101700;;;12.50487;57.1
70943;BME280;59154;51.970;5.650;2023-04-20T13:00:05;101700;;;12.26585;57.8
70943;BME280;59154;51.970;5.650;2023-04-20T13:05:02;101700;;;12.97785;56.6
70943;BME280;59154;51.970;5.650;2023-04-20T13:10:03;101700;;;12.71339;57.5
70943;BME280;59154;51.970;5.650;2023-04-20T13:15:03;101700;;;12.76425;57.3
70943;BME280;59154;51.970;5.650;2023-04-20T13:20:03;101700;;;13.24739;57.3
70943;BME280;59154;51.970;5.650;2023-04-20T13:25:03;101700;;;12.94225;56.5
70943;BME280;59154;51.970;5.650;2023-04-20T13:30:03;101700;;;12.4947;57.1
70943;BME280;59154;51.970;5.650;2023-04-20T13:35:04;101700;;;12.55573;57.2
70943;BME280;59154;51.970;5.650;2023-04-20T13:40:04;101700;;;12.86087;57.0
70943;BME280;59154;51.970;5.650;2023-04-20T13:45:02;101700;;;12.9219;56.3
70943;BME280;59154;51.970;5.650;2023-04-20T13:50:04;101700;;;13.03887;56.5
70943;BME280;59154;51.970;5.650;2023-04-20T13:55:02;101700;;;12.95242;55.7
70943;BME280;59154;51.970;5.650;2023-04-20T14:00:05;101700;;;13.10499;56.1
70943;BME280;59154;51.970;5.650;2023-04-20T14:05:03;101700;;;13.46608;55.8
70943;BME280;59154;51.970;5.650;2023-04-20T14:10:03;101700;;;12.72865;57.2
70943;BME280;59154;51.970;5.650;2023-04-20T14:15:02;101700;;;12.65236;57.4
70943;BME280;59154;51.970;5.650;2023-04-20T14:20:04;101700;;;13.04905;57.0
70943;BME280;59154;51.970;5.650;2023-04-20T14:25:02;101700;;;12.79476;56.8
70943;BME280;59154;51.970;5.650;2023-04-20T14:30:04;101700;;;13.49659;55.9
70943;BME280;59154;51.970;5.650;2023-04-20T14:35:02;101700;;;13.08465;57.9
70943;BME280;59154;51.970;5.650;2023-04-20T14:40:03;101700;;;12.76425;58.2
70943;BME280;59154;51.970;5.650;2023-04-20T14:45:03;101700;;;13.28299;57.0
70943;BME280;59154;51.970;5.650;2023-04-20T14:50:04;101700;;;13.30842;56.0
70943;BME280;59154;51.970;5.650;2023-04-20T14:55:03;101700;;;14.02551;56.0
70943;BME280;59154;51.970;5.650;2023-04-20T15:00:05;101700;;;13.79157;54.9
70943;BME280;59154;51.970;5.650;2023-04-20T15:05:03;101700;;;13.25756;55.8
70943;BME280;59154;51.970;5.650;2023-04-20T15:10:03;101700;;;13.29825;56.6
70943;BME280;59154;51.970;5.650;2023-04-20T15:15:02;101600;;;13.47625;55.8
70943;BME280;59154;51.970;5.650;2023-04-20T15:20:04;101600;;;13.30333;56.0
70943;BME280;59154;51.970;5.650;2023-04-20T15:25:03;101600;;;14.49341;54.6
70943;BME280;59154;51.970;5.650;2023-04-20T15:30:04;101600;;;14.57478;53.5
70943;BME280;59154;51.970;5.650;2023-04-20T15:35:03;101600;;;14.18826;53.4
70943;BME280;59154;51.970;5.650;2023-04-20T15:40:03;101600;;;13.76105;53.5
70943;BME280;59154;51.970;5.650;2023-04-20T15:45:03;101600;;;13.59831;54.4
70943;BME280;59154;51.970;5.650;2023-04-20T15:50:03;101600;;;14.20352;53.2
70943;BME280;59154;51.970;5.650;2023-04-20T15:55:03;101600;;;14.74261;52.6
70943;BME280;59154;51.970;5.650;2023-04-20T16:00:04;101600;;;15.358;51.5
70943;BME280;59154;51.970;5.650;2023-04-20T16:05:04;101600;;;15.36309;50.9
70943;BME280;59154;51.970;5.650;2023-04-20T16:10:04;101600;;;14.30523;51.6
70943;BME280;59154;51.970;5.650;2023-04-20T16:15:03;101600;;;14.10689;52.6
70943;BME280;59154;51.970;5.650;2023-04-20T16:20:04;101600;;;14.68667;52.1
70943;BME280;59154;51.970;5.650;2023-04-20T16:25:03;101600;;;15.62247;50.9
70943;BME280;59154;51.970;5.650;2023-04-20T16:30:05;101600;;;16.13106;50.0
70943;BME280;59154;51.970;5.650;2023-04-20T16:35:02;101600;;;16.20735;48.7
70943;BME280;59154;51.970;5.650;2023-04-20T16:40:05;101600;;;16.00391;48.6
70943;BME280;59154;51.970;5.650;2023-04-20T16:45:04;101600;;;14.7477;49.1
70943;BME280;59154;51.970;5.650;2023-04-20T16:50:03;101600;;;14.50867;50.5
70943;BME280;59154;51.970;5.650;2023-04-20T16:55:02;101600;;;14.00517;51.3
70943;BME280;59154;51.970;5.650;2023-04-20T17:00:04;101600;;;14.69684;50.6
70943;BME280;59154;51.970;5.650;2023-04-20T17:05:03;101600;;;15.61738;48.5
70943;BME280;59154;51.970;5.650;2023-04-20T17:10:04;101600;;;15.97848;48.7
70943;BME280;59154;51.970;5.650;2023-04-20T17:15:03;101600;;;16.14123;48.6
70943;BME280;59154;51.970;5.650;2023-04-20T17:20:04;101600;;;15.99374;49.2
70943;BME280;59154;51.970;5.650;2023-04-20T17:25:03;101600;;;14.65615;50.4
70943;BME280;59154;51.970;5.650;2023-04-20T17:30:03;101600;;;14.03568;51.6
70943;BME280;59154;51.970;5.650;2023-04-20T17:35:03;101600;;;13.817;52.1
70943;BME280;59154;51.970;5.650;2023-04-20T17:40:05;101600;;;13.44573;52.4
70943;BME280;59154;51.970;5.650;2023-04-20T17:45:03;101600;;;13.45082;52.9
70943;BME280;59154;51.970;5.650;2023-04-20T17:50:03;101600;;;13.45082;52.9
70943;BME280;59154;51.970;5.650;2023-04-20T17:55:03;101600;;;13.67459;52.4
70943;BME280;59154;51.970;5.650;2023-04-20T18:00:05;101600;;;13.56779;52.8
70943;BME280;59154;51.970;5.650;2023-04-20T18:05:03;101600;;;13.54236;52.9
70943;BME280;59154;51.970;5.650;2023-04-20T18:10:03;101600;;;13.53219;53.1
70943;BME280;59154;51.970;5.650;2023-04-20T18:15:03;101600;;;13.48642;53.4
70943;BME280;59154;51.970;5.650;2023-04-20T18:20:05;101600;;;13.44065;52.7
70943;BME280;59154;51.970;5.650;2023-04-20T18:25:03;101600;;;13.12025;52.3
70943;BME280;59154;51.970;5.650;2023-04-20T18:30:03;101600;;;13.10499;52.5
70943;BME280;59154;51.970;5.650;2023-04-20T18:35:02;101600;;;12.97785;52.1
70943;BME280;59154;51.970;5.650;2023-04-20T18:40:04;101600;;;13.03379;52.2
70943;BME280;59154;51.970;5.650;2023-04-20T18:45:03;101700;;;12.96767;52.4
70943;BME280;59154;51.970;5.650;2023-04-20T18:50:03;101700;;;12.8151;52.7
70943;BME280;59154;51.970;5.650;2023-04-20T18:55:02;101700;;;12.73373;53.1
70943;BME280;59154;51.970;5.650;2023-04-20T19:00:04;101700;;;12.70322;53.6
70943;BME280;59154;51.970;5.650;2023-04-20T19:05:03;101700;;;12.54556;55.8
70943;BME280;59154;51.970;5.650;2023-04-20T19:10:03;101700;;;12.50487;56.2
70943;BME280;59154;51.970;5.650;2023-04-20T19:15:02;101700;;;12.52013;55.5
70943;BME280;59154;51.970;5.650;2023-04-20T19:20:04;101700;;;12.30145;56.8
70943;BME280;59154;51.970;5.650;2023-04-20T19:25:04;101700;;;12.35739;57.8
70943;BME280;59154;51.970;5.650;2023-04-20T19:30:04;101700;;;12.08276;59.0
70943;BME280;59154;51.970;5.650;2023-04-20T19:35:02;101700;;;12.1031;60.4
70943;BME280;59154;51.970;5.650;2023-04-20T19:40:04;101700;;;11.98105;60.3
70943;BME280;59154;51.970;5.650;2023-04-20T19:45:02;101700;;;11.80813;61.0
70943;BME280;59154;51.970;5.650;2023-04-20T19:50:04;101700;;;11.64031;61.6
70943;BME280;59154;51.970;5.650;2023-04-20T19:55:04;101700;;;11.79796;61.8
70943;BME280;59154;51.970;5.650;2023-04-20T20:00:04;101700;;;11.56911;62.9
70943;BME280;59154;51.970;5.650;2023-04-20T20:05:02;101700;;;11.59962;63.4
70943;BME280;59154;51.970;5.650;2023-04-20T20:10:03;101700;;;11.60471;63.8
70943;BME280;59154;51.970;5.650;2023-04-20T20:15:03;101700;;;11.53859;64.5
70943;BME280;59154;51.970;5.650;2023-04-20T20:20:04;101700;;;11.59962;64.5
70943;BME280;59154;51.970;5.650;2023-04-20T20:25:03;101700;;;11.64031;63.8
70943;BME280;59154;51.970;5.650;2023-04-20T20:30:03;101700;;;11.57419;64.2
70943;BME280;59154;51.970;5.650;2023-04-20T20:35:03;101600;;;11.45722;64.6
70943;BME280;59154;51.970;5.650;2023-04-20T20:40:05;101600;;;11.24363;64.7
70943;BME280;59154;51.970;5.650;2023-04-20T20:45:03;101600;;;11.25888;65.2
70943;BME280;59154;51.970;5.650;2023-04-20T20:50:04;101600;;;11.20803;65.7
70943;BME280;59154;51.970;5.650;2023-04-20T20:55:03;101700;;;11.147;66.0
70943;BME280;59154;51.970;5.650;2023-04-20T21:00:05;101600;;;10.94866;66.4
70943;BME280;59154;51.970;5.650;2023-04-20T21:05:03;101600;;;10.98935;67.8
70943;BME280;59154;51.970;5.650;2023-04-20T21:10:03;101600;;;10.90798;68.2
70943;BME280;59154;51.970;5.650;2023-04-20T21:15:02;101600;;;10.77066;69.1
70943;BME280;59154;51.970;5.650;2023-04-20T21:20:04;101600;;;10.95375;69.1
70943;BME280;59154;51.970;5.650;2023-04-20T21:25:03;101600;;;10.70964;70.2
70943;BME280;59154;51.970;5.650;2023-04-20T21:30:03;101600;;;10.64352;70.8
70943;BME280;59154;51.970;5.650;2023-04-20T21:35:03;101600;;;10.78084;70.9
70943;BME280;59154;51.970;5.650;2023-04-20T21:40:04;101600;;;10.6537;71.4
70943;BME280;59154;51.970;5.650;2023-04-20T21:45:03;101600;;;10.70964;72.2
70943;BME280;59154;51.970;5.650;2023-04-20T21:50:04;101600;;;10.80118;72.6
70943;BME280;59154;51.970;5.650;2023-04-20T21:55:02;101700;;;10.63844;73.4
70943;BME280;59154;51.970;5.650;2023-04-20T22:00:04;101700;;;10.98426;72.9
70943;BME280;59154;51.970;5.650;2023-04-20T22:05:03;101600;;;10.83169;74.7
70943;BME280;59154;51.970;5.650;2023-04-20T22:10:05;101700;;;10.74015;76.1
70943;BME280;59154;51.970;5.650;2023-04-20T22:15:02;101700;;;10.72998;76.7
70943;BME280;59154;51.970;5.650;2023-04-20T22:20:04;101700;;;10.69947;77.7
70943;BME280;59154;51.970;5.650;2023-04-20T22:25:03;101600;;;10.77575;79.0
70943;BME280;59154;51.970;5.650;2023-04-20T22:30:03;101600;;;10.63335;80.2
70943;BME280;59154;51.970;5.650;2023-04-20T22:35:03;101600;;;10.70455;80.5
70943;BME280;59154;51.970;5.650;2023-04-20T22:40:04;101600;;;10.4045;81.0
70943;BME280;59154;51.970;5.650;2023-04-20T22:45:03;101600;;;10.47061;82.6
70943;BME280;59154;51.970;5.650;2023-04-20T22:50:04;101600;;;10.47061;82.0
70943;BME280;59154;51.970;5.650;2023-04-20T22:55:02;101600;;;10.44519;82.6
70943;BME280;59154;51.970;5.650;2023-04-20T23:00:04;101600;;;10.6537;83.1
70943;BME280;59154;51.970;5.650;2023-04-20T23:05:02;101600;;;10.49604;83.8
70943;BME280;59154;51.970;5.650;2023-04-20T23:10:03;101600;;;10.51638;84.2
70943;BME280;59154;51.970;5.650;2023-04-20T23:15:03;101600;;;10.56724;84.0
70943;BME280;59154;51.970;5.650;2023-04-20T23:20:04;101600;;;10.52656;83.5
70943;BME280;59154;51.970;5.650;2023-04-20T23:25:02;101500;;;10.44519;84.1
70943;BME280;59154;51.970;5.650;2023-04-20T23:30:04;101500;;;10.33839;85.1
70943;BME280;59154;51.970;5.650;2023-04-20T23:35:03;101500;;;10.26211;86.0
70943;BME280;59154;51.970;5.650;2023-04-20T23:40:04;101500;;;9.97223;87.2
70943;BME280;59154;51.970;5.650;2023-04-20T23:45:02;101500;;;10.21634;87.3
70943;BME280;59154;51.970;5.650;2023-04-20T23:50:03;101500;;;10.22651;87.9
70943;BME280;59154;51.970;5.650;2023-04-20T23:55:02;101500;;;10.38924;87.5
